Time;durP1;ratioP1;P1;durP2;ratioP2;P2;SDS_P1;SDS_P2;PMS_P1;PMS_P2;Temp;Humidity;BMP_temperature;BMP_pressure;BME280_temperature;BME280_humidity;BME280_pressure;Samples;Min_cycle;Max_cycle;Signal;HPM_P1;HPM_P2
2022/12/19 00:02:05;;;;;;;35.20;21.67;;;4.20;95.00;;;;;;5001422;28;20036;-75
2022/12/19 00:04:31;;;;;;;35.13;20.75;;;4.20;95.10;;;;;;5008164;28;20056;-77
2022/12/19 00:06:57;;;;;;;35.15;20.88;;;4.20;95.10;;;;;;5001563;28;20034;-76
2022/12/19 00:09:23;;;;;;;36.67;21.23;;;4.20;95.00;;;;;;5006402;28;20397;-78
2022/12/19 00:11:49;;;;;;;35.92;20.52;;;4.20;95.00;;;;;;5005609;28;20049;-77
2022/12/19 00:14:15;;;;;;;35.30;21.63;;;4.20;95.00;;;;;;5001064;28;20435;-76
2022/12/19 00:16:40;;;;;;;37.40;21.52;;;4.20;95.00;;;;;;5003998;28;20124;-78
2022/12/19 00:19:06;;;;;;;38.70;21.80;;;4.20;95.10;;;;;;4999796;28;20474;-76
2022/12/19 00:21:33;;;;;;;37.35;22.27;;;4.30;95.10;;;;;;5008601;28;20469;-76
2022/12/19 00:23:59;;;;;;;37.03;21.75;;;4.40;95.10;;;;;;5007812;28;20041;-77
2022/12/19 00:26:35;;;;;;;37.90;20.88;;;4.30;95.10;;;;;;5003078;28;20041;-75
2022/12/19 00:29:05;;;;;;;33.72;20.73;;;4.30;95.10;;;;;;5008720;28;20064;-75
2022/12/19 00:31:32;;;;;;;37.72;22.42;;;4.30;95.20;;;;;;4992027;28;20062;-75
2022/12/19 00:33:58;;;;;;;36.90;22.50;;;4.40;95.20;;;;;;5003616;28;20046;-76
2022/12/19 00:36:27;;;;;;;36.25;21.30;;;4.40;95.20;;;;;;4996891;28;20165;-77
2022/12/19 00:38:54;;;;;;;31.70;20.23;;;4.40;95.20;;;;;;4999579;28;20358;-75
2022/12/19 00:41:26;;;;;;;33.83;20.85;;;4.40;95.20;;;;;;5003323;28;20061;-77
2022/12/19 00:43:53;;;;;;;33.97;20.50;;;4.40;95.30;;;;;;5002100;28;20049;-75
2022/12/19 00:46:19;;;;;;;39.00;21.20;;;4.40;95.30;;;;;;4998521;28;20045;-75
2022/12/19 00:48:44;;;;;;;34.03;22.15;;;4.50;95.40;;;;;;5000331;28;20398;-75
2022/12/19 00:51:13;;;;;;;34.13;20.85;;;4.50;95.50;;;;;;5002299;28;20041;-72
2022/12/19 00:53:39;;;;;;;36.30;21.13;;;4.50;95.50;;;;;;5002832;28;20053;-75
2022/12/19 00:56:07;;;;;;;34.72;21.25;;;4.60;95.60;;;;;;5000048;28;20046;-75
2022/12/19 00:58:33;;;;;;;34.60;20.42;;;4.60;95.60;;;;;;5004387;28;20168;-75
2022/12/19 01:01:05;;;;;;;34.47;21.10;;;4.60;95.60;;;;;;5001840;28;20485;-75
2022/12/19 01:03:30;;;;;;;36.35;22.15;;;4.60;95.60;;;;;;5003406;28;20489;-76
2022/12/19 01:05:56;;;;;;;37.58;22.30;;;4.70;95.70;;;;;;4996258;28;20053;-75
2022/12/19 01:08:22;;;;;;;32.42;20.92;;;4.60;95.60;;;;;;5007725;28;20476;-74
2022/12/19 01:10:49;;;;;;;32.03;20.58;;;4.70;95.60;;;;;;4998784;28;20402;-77
2022/12/19 01:13:17;;;;;;;31.58;20.63;;;4.70;95.60;;;;;;4996581;28;20129;-76
2022/12/19 01:15:43;;;;;;;30.00;20.75;;;4.70;95.60;;;;;;5001096;28;20034;-76
2022/12/19 01:18:09;;;;;;;34.17;20.58;;;4.80;95.60;;;;;;4993597;28;20046;-75
2022/12/19 01:20:43;;;;;;;30.85;19.77;;;4.80;95.60;;;;;;4996641;28;20038;-75
2022/12/19 01:23:09;;;;;;;31.90;20.40;;;4.80;95.60;;;;;;5000493;28;20096;-76
2022/12/19 01:25:37;;;;;;;32.20;21.20;;;4.80;95.60;;;;;;5000465;28;20480;-75
2022/12/19 01:28:04;;;;;;;31.95;22.00;;;4.80;95.50;;;;;;4998474;28;20397;-75
2022/12/19 01:30:29;;;;;;;33.55;21.65;;;4.90;95.50;;;;;;4998888;28;20041;-76
2022/12/19 01:32:56;;;;;;;30.67;20.48;;;4.90;95.50;;;;;;5015850;28;20049;-76
2022/12/19 01:35:22;;;;;;;31.95;20.15;;;4.90;95.40;;;;;;5000103;28;20042;-75
2022/12/19 01:37:52;;;;;;;35.20;21.50;;;4.90;95.40;;;;;;5003748;28;20088;-76
2022/12/19 01:40:19;;;;;;;30.55;20.60;;;5.00;95.40;;;;;;4996445;28;20121;-76
2022/12/19 01:42:45;;;;;;;30.83;21.13;;;5.00;95.30;;;;;;5002133;28;20033;-75
2022/12/19 01:45:11;;;;;;;30.48;19.10;;;5.00;95.30;;;;;;4997594;28;20038;-75
2022/12/19 01:47:53;;;;;;;29.40;21.23;;;5.00;95.20;;;;;;4998557;28;20038;-75
2022/12/19 01:50:24;;;;;;;29.85;20.08;;;5.00;95.20;;;;;;5001643;28;20535;-76
2022/12/19 01:52:51;;;;;;;31.45;20.55;;;5.10;95.10;;;;;;4999123;28;20113;-76
2022/12/19 01:55:17;;;;;;;29.70;19.52;;;5.00;95.10;;;;;;5002138;28;20034;-76
2022/12/19 01:57:42;;;;;;;30.27;19.92;;;5.00;95.10;;;;;;5001265;28;20037;-76
2022/12/19 02:00:09;;;;;;;27.85;19.17;;;5.10;95.10;;;;;;4994729;28;20037;-76
2022/12/19 02:02:45;;;;;;;30.02;20.48;;;5.10;95.10;;;;;;5000608;28;20026;-75
2022/12/19 02:05:11;;;;;;;28.88;19.77;;;5.10;95.10;;;;;;4997737;28;20901;-76
2022/12/19 02:07:38;;;;;;;28.80;18.90;;;5.10;95.20;;;;;;4998867;28;20065;-76
2022/12/19 02:10:04;;;;;;;25.20;18.98;;;5.10;95.10;;;;;;4999640;28;20045;-76
2022/12/19 02:12:35;;;;;;;30.50;20.60;;;5.10;95.20;;;;;;4999967;28;20176;-76
2022/12/19 02:15:03;;;;;;;26.92;18.73;;;5.20;95.20;;;;;;4998345;28;20041;-76
2022/12/19 02:17:59;;;;;;;26.65;18.75;;;5.20;95.30;;;;;;4996227;28;20046;-76
2022/12/19 02:20:30;;;;;;;27.13;17.77;;;5.30;95.30;;;;;;5001268;28;20064;-76
2022/12/19 02:23:32;;;;;;;28.50;20.15;;;5.30;95.30;;;;;;5004561;28;20044;-76
2022/12/19 02:26:21;;;;;;;29.20;21.50;;;5.30;95.30;;;;;;4999251;28;20058;-75
2022/12/19 02:29:10;;;;;;;27.10;19.77;;;5.40;95.30;;;;;;5002881;28;20045;-75
2022/12/19 02:31:45;;;;;;;28.38;18.80;;;5.30;95.30;;;;;;4963303;28;20039;-76
2022/12/19 02:34:24;;;;;;;27.88;19.98;;;5.40;95.40;;;;;;4977527;28;20072;-76
2022/12/19 02:36:54;;;;;;;28.38;19.33;;;5.40;95.40;;;;;;4977414;28;20426;-76
2022/12/19 02:39:30;;;;;;;27.58;18.60;;;5.40;95.40;;;;;;4975156;28;20040;-76
2022/12/19 02:41:58;;;;;;;25.90;19.08;;;5.40;95.40;;;;;;4978987;28;20065;-76
2022/12/19 02:44:46;;;;;;;30.80;19.80;;;5.40;95.40;;;;;;4979701;28;20046;-77
2022/12/19 02:47:13;;;;;;;29.48;20.52;;;5.40;95.50;;;;;;4978258;28;20687;-76
2022/12/19 02:49:39;;;;;;;30.05;19.50;;;5.40;95.50;;;;;;4981421;28;20487;-76
2022/12/19 02:52:32;;;;;;;28.92;19.40;;;5.50;95.50;;;;;;4983421;28;20041;-76
2022/12/19 02:55:17;;;;;;;30.05;19.83;;;5.50;95.50;;;;;;4986672;28;20045;-75
2022/12/19 02:58:17;;;;;;;28.17;19.40;;;5.50;95.60;;;;;;4984930;28;20030;-77
2022/12/19 03:01:47;;;;;;;29.02;19.70;;;5.50;95.60;;;;;;4973144;28;20034;-75
2022/12/19 03:04:35;;;;;;;28.27;19.15;;;5.60;95.60;;;;;;4967196;28;20556;-76
2022/12/19 03:07:08;;;;;;;28.17;19.25;;;5.60;95.60;;;;;;4981638;28;20096;-75
2022/12/19 03:10:03;;;;;;;27.43;19.23;;;5.60;95.60;;;;;;4983754;28;20141;-75
2022/12/19 03:12:35;;;;;;;30.52;19.20;;;5.60;95.60;;;;;;4978245;28;20054;-75
2022/12/19 03:15:01;;;;;;;25.05;18.83;;;5.60;95.60;;;;;;4985134;28;20373;-76
2022/12/19 03:17:27;;;;;;;25.10;18.50;;;5.60;95.50;;;;;;4979720;28;20042;-76
2022/12/19 03:19:53;;;;;;;25.40;17.55;;;5.70;95.50;;;;;;4985206;28;20092;-75
2022/12/19 03:22:19;;;;;;;26.42;18.40;;;5.70;95.50;;;;;;4980707;28;20034;-75
2022/12/19 03:24:45;;;;;;;25.50;17.75;;;5.70;95.40;;;;;;4995334;28;20473;-75
2022/12/19 03:27:26;;;;;;;25.17;17.35;;;5.70;95.40;;;;;;5001865;28;21023;-77
2022/12/19 03:30:02;;;;;;;22.95;16.77;;;5.70;95.40;;;;;;4995296;28;20050;-76
2022/12/19 03:32:30;;;;;;;24.33;17.92;;;5.80;95.40;;;;;;5003704;28;20107;-76
2022/12/19 03:35:03;;;;;;;21.85;16.30;;;5.80;95.40;;;;;;5001865;28;20053;-77
2022/12/19 03:37:35;;;;;;;25.58;17.25;;;5.80;95.30;;;;;;5001348;28;20038;-75
2022/12/19 03:40:14;;;;;;;21.10;15.95;;;5.90;95.20;;;;;;5004311;28;20032;-76
2022/12/19 03:45:38;;;;;;;23.13;16.33;;;5.90;95.10;;;;;;4997865;28;20097;-75
2022/12/19 03:48:08;;;;;;;22.95;15.48;;;5.90;95.00;;;;;;5000615;28;20030;-76
2022/12/19 03:51:05;;;;;;;24.30;16.45;;;6.00;95.10;;;;;;5003280;28;20068;-76
2022/12/19 03:53:40;;;;;;;21.23;14.75;;;6.00;94.90;;;;;;4976525;28;20056;-75
2022/12/19 03:56:39;;;;;;;23.00;15.80;;;6.10;94.90;;;;;;4981167;28;20129;-76
2022/12/19 03:59:20;;;;;;;22.48;15.75;;;6.10;94.90;;;;;;4979278;28;20031;-75
2022/12/19 04:01:46;;;;;;;21.88;15.00;;;6.10;94.90;;;;;;4979372;28;20046;-76
2022/12/19 04:04:13;;;;;;;20.65;15.05;;;6.10;94.80;;;;;;4988488;28;20053;-76
2022/12/19 04:06:41;;;;;;;24.02;15.93;;;6.10;94.80;;;;;;4982139;28;20494;-77
2022/12/19 04:09:07;;;;;;;23.08;15.55;;;6.20;94.70;;;;;;4984785;28;20038;-75
2022/12/19 04:11:42;;;;;;;24.60;15.57;;;6.20;94.90;;;;;;4977058;28;20495;-77
2022/12/19 04:14:11;;;;;;;;;;;6.20;94.70;;;;;;4978857;28;20038;-76
2022/12/19 04:16:50;;;;;;;19.38;14.45;;;6.20;94.70;;;;;;4977850;28;19917;-76
2022/12/19 04:19:39;;;;;;;21.17;15.10;;;6.20;94.70;;;;;;4976337;28;20045;-77
2022/12/19 04:22:15;;;;;;;18.95;13.57;;;6.30;94.70;;;;;;4979976;28;20041;-76
2022/12/19 04:24:43;;;;;;;22.25;15.25;;;6.30;94.70;;;;;;4979512;28;20066;-76
2022/12/19 04:27:12;;;;;;;19.85;14.68;;;6.40;94.60;;;;;;4978506;28;20038;-76
2022/12/19 04:29:38;;;;;;;19.77;13.73;;;6.40;94.60;;;;;;4980058;28;20057;-75
2022/12/19 04:32:05;;;;;;;19.45;13.27;;;6.40;94.50;;;;;;4981222;28;20495;-76
2022/12/19 04:34:32;;;;;;;22.27;14.98;;;6.40;94.50;;;;;;4981579;28;20076;-76
2022/12/19 04:36:58;;;;;;;20.73;14.35;;;6.40;94.50;;;;;;4980889;28;20039;-76
2022/12/19 04:39:24;;;;;;;19.90;13.98;;;6.40;94.50;;;;;;4975899;28;20041;-76
2022/12/19 04:41:50;;;;;;;19.35;13.88;;;6.40;94.40;;;;;;4978283;28;20035;-76
2022/12/19 04:44:15;;;;;;;19.25;14.15;;;6.40;94.40;;;;;;4979664;28;20665;-76
2022/12/19 04:46:41;;;;;;;17.63;12.90;;;6.40;94.40;;;;;;4974221;28;20390;-76
2022/12/19 04:49:06;;;;;;;18.70;14.20;;;6.40;94.30;;;;;;4982598;28;20038;-76
2022/12/19 04:51:32;;;;;;;20.42;14.63;;;6.40;94.30;;;;;;4983741;28;20180;-76
2022/12/19 04:53:58;;;;;;;19.42;13.68;;;6.40;94.30;;;;;;4984624;28;20042;-76
2022/12/19 04:56:23;;;;;;;19.75;14.38;;;6.40;94.40;;;;;;4982070;28;20049;-76
2022/12/19 04:58:54;;;;;;;19.38;13.48;;;6.40;94.40;;;;;;4982094;28;20486;-76
2022/12/19 05:01:20;;;;;;;17.38;12.82;;;6.40;94.40;;;;;;4974819;28;20121;-76
2022/12/19 05:03:45;;;;;;;19.17;13.73;;;6.50;94.40;;;;;;4975421;28;20130;-76
2022/12/19 05:06:13;;;;;;;21.08;14.38;;;6.50;94.40;;;;;;4970001;28;20549;-76
2022/12/19 05:08:41;;;;;;;18.60;13.63;;;6.50;94.40;;;;;;4976922;28;20036;-76
2022/12/19 05:11:08;;;;;;;17.92;12.52;;;6.50;94.40;;;;;;4973872;28;20045;-76
2022/12/19 05:13:34;;;;;;;18.75;12.68;;;6.50;94.30;;;;;;4977179;28;20463;-76
2022/12/19 05:16:03;;;;;;;17.65;13.05;;;6.60;94.30;;;;;;4978316;28;20042;-76
2022/12/19 05:18:29;;;;;;;17.45;13.70;;;6.60;94.30;;;;;;4986852;28;20136;-77
2022/12/19 05:20:55;;;;;;;17.50;13.68;;;6.60;94.20;;;;;;4980290;28;20030;-76
2022/12/19 05:23:21;;;;;;;18.63;13.82;;;6.60;94.20;;;;;;4974686;28;20041;-77
2022/12/19 05:25:47;;;;;;;18.00;12.60;;;6.60;94.20;;;;;;4981929;28;20042;-77
2022/12/19 05:28:13;;;;;;;18.98;13.20;;;6.60;94.20;;;;;;4980303;28;20097;-76
2022/12/19 05:30:39;;;;;;;16.77;12.90;;;6.60;94.20;;;;;;4976465;28;20039;-76
2022/12/19 05:33:05;;;;;;;16.77;12.98;;;6.60;94.10;;;;;;4984981;28;20134;-76
2022/12/19 05:35:32;;;;;;;20.75;12.77;;;6.60;94.20;;;;;;4977112;28;20425;-76
2022/12/19 05:37:57;;;;;;;17.65;12.05;;;6.60;94.00;;;;;;4978586;28;20037;-76
2022/12/19 05:40:23;;;;;;;17.25;11.68;;;6.70;94.00;;;;;;4978475;28;20421;-76
2022/12/19 05:42:49;;;;;;;16.25;12.73;;;6.70;94.00;;;;;;4984489;28;20034;-75
2022/12/19 05:45:14;;;;;;;16.42;12.50;;;6.70;93.90;;;;;;4982877;28;20117;-76
2022/12/19 05:47:42;;;;;;;20.90;12.38;;;6.70;93.90;;;;;;4979703;28;20557;-76
2022/12/19 05:50:08;;;;;;;16.83;12.20;;;6.80;93.90;;;;;;4987219;28;20458;-75
2022/12/19 05:52:35;;;;;;;17.65;13.00;;;6.80;93.70;;;;;;4978739;28;20034;-76
2022/12/19 05:55:01;;;;;;;15.40;11.82;;;6.90;93.70;;;;;;4983862;28;20074;-77
2022/12/19 05:57:26;;;;;;;16.80;12.05;;;6.90;93.50;;;;;;4992651;28;20062;-76
2022/12/19 05:59:52;;;;;;;17.45;11.90;;;6.90;93.60;;;;;;4997259;28;20325;-76
2022/12/19 06:02:17;;;;;;;18.33;12.15;;;6.90;93.60;;;;;;4986785;28;20062;-77
2022/12/19 06:04:43;;;;;;;17.52;11.73;;;6.90;93.50;;;;;;4995379;28;20532;-77
2022/12/19 06:07:09;;;;;;;15.45;11.50;;;6.90;93.50;;;;;;5000158;28;20038;-77
2022/12/19 06:09:34;;;;;;;15.98;11.82;;;6.90;93.60;;;;;;4998426;28;20022;-77
2022/12/19 06:12:00;;;;;;;16.02;11.48;;;6.90;93.70;;;;;;4995979;28;20398;-77
2022/12/19 06:14:26;;;;;;;15.85;12.43;;;6.90;93.70;;;;;;4995654;28;20045;-77
2022/12/19 06:16:51;;;;;;;16.95;12.23;;;6.90;93.70;;;;;;5000730;28;20478;-76
2022/12/19 06:19:20;;;;;;;16.50;11.60;;;6.90;93.70;;;;;;4996889;28;20052;-77
2022/12/19 06:21:46;;;;;;;15.25;10.85;;;7.00;93.70;;;;;;4997012;28;20049;-77
2022/12/19 06:24:12;;;;;;;16.17;12.13;;;7.00;93.70;;;;;;5002687;28;20557;-76
2022/12/19 06:26:37;;;;;;;17.33;12.32;;;7.00;93.80;;;;;;4991709;28;20042;-78
2022/12/19 06:29:03;;;;;;;15.65;10.88;;;7.10;93.80;;;;;;4997433;28;20034;-77
2022/12/19 06:31:29;;;;;;;14.40;10.70;;;7.00;93.80;;;;;;4997855;28;20579;-77
2022/12/19 06:33:55;;;;;;;15.38;11.50;;;7.10;93.80;;;;;;4999305;28;20050;-77
2022/12/19 06:36:24;;;;;;;17.45;10.93;;;7.00;93.80;;;;;;5005250;28;20026;-75
2022/12/19 06:38:50;;;;;;;15.73;11.10;;;7.10;93.80;;;;;;5000486;28;20330;-76
2022/12/19 06:44:04;;;;;;;16.90;11.38;;;7.10;93.70;;;;;;4997921;28;20046;-78
2022/12/19 06:46:30;;;;;;;15.13;10.80;;;7.10;93.60;;;;;;4995630;28;20105;-75
2022/12/19 06:48:56;;;;;;;17.63;11.13;;;7.10;93.60;;;;;;5000983;28;20045;-76
2022/12/19 06:51:22;;;;;;;17.77;11.25;;;7.10;93.60;;;;;;4993829;28;20471;-77
2022/12/19 06:53:48;;;;;;;17.60;11.57;;;7.10;93.40;;;;;;5001025;28;20073;-75
2022/12/19 06:56:15;;;;;;;16.80;11.05;;;7.10;93.30;;;;;;4993762;28;20062;-76
2022/12/19 06:58:41;;;;;;;14.73;10.63;;;7.20;93.20;;;;;;4996677;28;20409;-75
2022/12/19 07:01:07;;;;;;;15.63;10.57;;;7.10;93.00;;;;;;5001145;28;20589;-76
2022/12/19 07:03:37;;;;;;;15.82;10.27;;;7.10;92.90;;;;;;4999082;28;20125;-77
2022/12/19 07:06:04;;;;;;;16.38;11.35;;;7.10;92.90;;;;;;4996145;28;20046;-75
2022/12/19 07:08:29;;;;;;;14.75;11.10;;;7.10;92.90;;;;;;4993660;28;20041;-75
2022/12/19 07:10:56;;;;;;;13.00;10.05;;;7.20;92.90;;;;;;4994441;28;20042;-75
2022/12/19 07:13:21;;;;;;;13.27;10.05;;;7.20;92.90;;;;;;5001153;28;20050;-75
2022/12/19 07:15:48;;;;;;;15.85;9.70;;;7.20;92.80;;;;;;5003576;28;20136;-75
2022/12/19 07:18:14;;;;;;;14.15;10.20;;;7.30;92.80;;;;;;4997593;28;20056;-75
2022/12/19 07:20:41;;;;;;;15.68;10.18;;;7.40;92.80;;;;;;4999072;28;20470;-75
2022/12/19 07:23:09;;;;;;;14.20;10.38;;;7.30;92.70;;;;;;4996402;28;20057;-76
2022/12/19 07:25:35;;;;;;;13.10;9.40;;;7.40;92.80;;;;;;4996532;28;20046;-76
2022/12/19 07:28:01;;;;;;;13.65;10.25;;;7.40;92.80;;;;;;4990993;28;20057;-75
2022/12/19 07:30:27;;;;;;;15.68;9.38;;;7.40;92.90;;;;;;5003278;28;20262;-76
2022/12/19 07:32:53;;;;;;;12.98;9.75;;;7.40;92.90;;;;;;5006811;28;20042;-76
2022/12/19 07:35:18;;;;;;;14.20;9.50;;;7.40;92.90;;;;;;5002312;28;20030;-76
2022/12/19 07:37:44;;;;;;;14.75;10.10;;;7.50;92.80;;;;;;5005033;28;20032;-77
2022/12/19 07:40:13;;;;;;;15.63;9.93;;;7.50;92.80;;;;;;5004709;28;20037;-76
2022/12/19 07:42:38;;;;;;;15.05;10.13;;;7.50;92.90;;;;;;4999014;28;20466;-77
2022/12/19 07:45:04;;;;;;;14.10;9.90;;;7.50;92.90;;;;;;4997280;28;20040;-76
2022/12/19 07:47:30;;;;;;;14.70;9.63;;;7.60;93.00;;;;;;5000056;28;20034;-76
2022/12/19 07:49:56;;;;;;;15.52;10.25;;;7.60;92.90;;;;;;5009245;28;20585;-76
2022/12/19 07:52:21;;;;;;;14.15;9.30;;;7.60;92.90;;;;;;5006009;28;20040;-76
2022/12/19 07:54:47;;;;;;;14.85;9.50;;;7.60;92.80;;;;;;5003929;28;20181;-76
2022/12/19 07:57:13;;;;;;;13.02;8.27;;;7.60;92.80;;;;;;5001018;28;20482;-77
2022/12/19 07:59:38;;;;;;;12.73;9.02;;;7.60;92.60;;;;;;5000219;28;20513;-76
2022/12/19 08:02:04;;;;;;;12.13;9.32;;;7.60;92.40;;;;;;4996493;28;20482;-76
2022/12/19 08:04:30;;;;;;;12.00;9.18;;;7.60;92.30;;;;;;4991839;28;20482;-77
2022/12/19 08:06:56;;;;;;;12.98;9.23;;;7.70;92.10;;;;;;5001331;28;20064;-76
2022/12/19 08:09:21;;;;;;;13.32;8.65;;;7.70;92.00;;;;;;4995742;28;20315;-76
2022/12/19 08:11:47;;;;;;;12.32;10.00;;;7.80;91.70;;;;;;4994068;28;20394;-76
2022/12/19 08:14:13;;;;;;;14.15;9.65;;;7.70;91.60;;;;;;4997059;28;20041;-77
2022/12/19 08:16:39;;;;;;;13.55;8.55;;;7.70;91.50;;;;;;5001697;28;20150;-76
2022/12/19 08:19:05;;;;;;;13.90;9.38;;;7.80;91.50;;;;;;4993924;28;20038;-76
2022/12/19 08:21:30;;;;;;;14.30;9.65;;;7.80;91.40;;;;;;5000658;28;20076;-77
2022/12/19 08:23:56;;;;;;;12.80;8.60;;;7.80;91.40;;;;;;4995488;28;20046;-77
2022/12/19 08:26:25;;;;;;;14.88;9.45;;;7.80;91.50;;;;;;4997352;28;20411;-76
2022/12/19 08:28:54;;;;;;;12.23;8.98;;;7.80;91.30;;;;;;5002310;28;20026;-76
2022/12/19 08:31:23;;;;;;;13.77;9.05;;;7.80;91.20;;;;;;4998652;28;20035;-76
2022/12/19 08:33:49;;;;;;;14.50;9.13;;;7.90;91.20;;;;;;5000184;28;20398;-75
2022/12/19 08:36:17;;;;;;;13.45;8.63;;;7.90;91.10;;;;;;4999239;28;20029;-75
2022/12/19 08:38:43;;;;;;;12.05;8.40;;;7.90;91.20;;;;;;5002853;28;20552;-76
2022/12/19 08:41:10;;;;;;;13.65;8.98;;;7.90;91.20;;;;;;5003018;28;20365;-75
2022/12/19 08:43:37;;;;;;;11.13;8.23;;;7.90;91.20;;;;;;5003958;28;20492;-76
2022/12/19 08:46:03;;;;;;;12.57;8.52;;;7.90;91.20;;;;;;4998715;28;20061;-76
2022/12/19 08:48:30;;;;;;;11.70;8.63;;;7.90;91.20;;;;;;5005518;28;20054;-75
2022/12/19 08:50:57;;;;;;;12.85;9.18;;;8.00;91.20;;;;;;4999478;28;20541;-76
2022/12/19 08:53:26;;;;;;;11.40;8.27;;;8.00;91.20;;;;;;4993756;28;20042;-75
2022/12/19 08:55:59;;;;;;;12.93;8.60;;;8.00;91.20;;;;;;4993772;28;20396;-78
2022/12/19 08:58:27;;;;;;;12.43;8.75;;;8.10;91.30;;;;;;5001687;28;20038;-78
2022/12/19 09:00:53;;;;;;;11.88;8.20;;;8.00;91.50;;;;;;4997779;28;20091;-78
2022/12/19 09:03:21;;;;;;;15.85;9.65;;;8.00;91.80;;;;;;4999826;28;20045;-77
2022/12/19 09:06:00;;;;;;;13.00;8.80;;;8.00;92.10;;;;;;5000575;28;20038;-77
2022/12/19 09:08:27;;;;;;;13.20;8.93;;;8.00;92.60;;;;;;4997000;28;20291;-78
2022/12/19 09:11:05;;;;;;;11.82;9.43;;;7.90;92.70;;;;;;4996857;28;20041;-78
2022/12/19 09:13:31;;;;;;;13.98;9.40;;;7.90;92.90;;;;;;4995701;28;20042;-77
2022/12/19 09:16:15;;;;;;;16.55;9.57;;;7.90;93.10;;;;;;4998512;28;20133;-77
2022/12/19 09:18:41;;;;;;;13.23;8.68;;;7.90;93.20;;;;;;5003342;28;20050;-76
2022/12/19 09:21:07;;;;;;;13.10;9.63;;;7.90;93.30;;;;;;4997109;28;20034;-81
2022/12/19 09:23:33;;;;;;;13.23;9.65;;;7.90;93.40;;;;;;4994550;28;20061;-78
2022/12/19 09:26:04;;;;;;;14.15;9.50;;;7.90;93.50;;;;;;4993884;28;20030;-76
2022/12/19 09:28:30;;;;;;;14.02;9.63;;;7.90;93.60;;;;;;4997778;28;20412;-78
2022/12/19 09:30:58;;;;;;;13.07;9.95;;;7.90;93.50;;;;;;4997424;28;20483;-76
2022/12/19 09:33:24;;;;;;;14.32;9.18;;;7.90;93.50;;;;;;4993038;28;20045;-77
2022/12/19 09:35:53;;;;;;;15.00;10.15;;;7.90;93.50;;;;;;4998742;28;20052;-77
2022/12/19 09:38:19;;;;;;;12.95;9.60;;;8.00;93.40;;;;;;5001390;28;20099;-81
2022/12/19 09:41:06;;;;;;;13.73;9.55;;;8.00;93.40;;;;;;5000345;28;20037;-79
2022/12/19 09:43:50;;;;;;;18.35;9.82;;;8.00;93.40;;;;;;4998771;28;20045;-78
2022/12/19 09:46:23;;;;;;;12.93;9.68;;;8.00;93.30;;;;;;4999603;28;20050;-79
2022/12/19 09:48:53;;;;;;;16.02;9.63;;;8.00;93.20;;;;;;5001273;28;21118;-81
2022/12/19 09:51:36;;;;;;;15.07;9.57;;;8.00;93.30;;;;;;4999196;28;20033;-80
2022/12/19 09:54:22;;;;;;;14.52;8.98;;;8.00;93.20;;;;;;4995269;28;20070;-77
2022/12/19 09:56:56;;;;;;;14.02;8.95;;;8.00;93.20;;;;;;4996932;28;20034;-78
2022/12/19 09:59:33;;;;;;;12.63;8.85;;;8.00;93.00;;;;;;4993806;28;20128;-78
2022/12/19 10:02:18;;;;;;;12.57;8.85;;;8.00;92.90;;;;;;4995226;28;21160;-78
2022/12/19 10:04:50;;;;;;;11.68;8.68;;;8.10;92.80;;;;;;4995874;28;20065;-78
2022/12/19 10:07:19;;;;;;;11.13;8.90;;;8.10;92.70;;;;;;4995286;28;20502;-78
2022/12/19 10:09:45;;;;;;;13.13;9.18;;;8.20;92.50;;;;;;4996471;28;20470;-78
2022/12/19 10:12:39;;;;;;;14.63;9.82;;;8.20;92.40;;;;;;4990446;28;20086;-77
2022/12/19 10:15:27;;;;;;;14.15;9.25;;;8.30;92.20;;;;;;4989756;28;20077;-79
2022/12/19 10:17:53;;;;;;;15.30;9.25;;;8.30;91.90;;;;;;4991038;28;20046;-80
2022/12/19 10:20:39;;;;;;;13.00;8.60;;;8.40;91.70;;;;;;4994160;28;20034;-78
2022/12/19 10:23:50;;;;;;;13.05;9.63;;;8.40;91.50;;;;;;4998255;28;20083;-76
2022/12/19 10:26:22;;;;;;;12.25;9.30;;;8.40;91.30;;;;;;4987157;28;20053;-78
2022/12/19 10:28:53;;;;;;;14.43;8.60;;;8.50;91.10;;;;;;4998701;28;20103;-79
2022/12/19 10:31:33;;;;;;;12.45;8.85;;;8.50;91.00;;;;;;4990367;28;20042;-80
2022/12/19 10:34:18;;;;;;;11.85;8.25;;;8.60;90.60;;;;;;4996033;28;20371;-80
2022/12/19 10:36:59;;;;;;;12.27;8.38;;;8.60;90.60;;;;;;4989916;28;20096;-78
2022/12/19 10:39:53;;;;;;;14.93;8.85;;;8.60;90.50;;;;;;4991691;28;20031;-79
2022/12/19 10:42:26;;;;;;;11.93;8.30;;;8.70;90.20;;;;;;4989452;28;20035;-77
2022/12/19 10:44:53;;;;;;;10.70;7.22;;;8.80;90.00;;;;;;4994200;28;20030;-78
2022/12/19 10:47:21;;;;;;;11.25;7.90;;;8.80;89.80;;;;;;4989291;28;20141;-81
2022/12/19 10:49:48;;;;;;;11.90;7.75;;;8.80;89.70;;;;;;4987293;28;20034;-79
2022/12/19 10:52:14;;;;;;;10.35;7.70;;;8.90;89.50;;;;;;4988447;28;20086;-77
2022/12/19 10:54:42;;;;;;;10.25;7.28;;;9.00;89.20;;;;;;4991186;28;20057;-79
2022/12/19 10:57:29;;;;;;;12.70;7.88;;;9.10;89.00;;;;;;4989294;28;20031;-77
2022/12/19 11:00:19;;;;;;;12.13;7.30;;;9.20;88.70;;;;;;4992472;28;20365;-78
2022/12/19 11:02:50;;;;;;;13.55;7.55;;;9.20;88.60;;;;;;4994505;28;20048;-75
2022/12/19 11:05:26;;;;;;;12.88;8.00;;;9.40;88.40;;;;;;4991147;28;20163;-80
2022/12/19 11:08:07;;;;;;;11.23;6.93;;;9.50;87.90;;;;;;4996808;28;20545;-78
2022/12/19 11:10:46;;;;;;;11.70;7.00;;;9.60;87.60;;;;;;4994313;28;20049;-77
2022/12/19 11:13:38;;;;;;;12.25;7.90;;;9.60;87.10;;;;;;4993615;28;20128;-78
2022/12/19 11:16:06;;;;;;;10.63;7.38;;;9.60;86.90;;;;;;4997416;28;20503;-79
2022/12/19 11:18:43;;;;;;;12.80;7.78;;;9.60;86.80;;;;;;5003346;28;20061;-79
2022/12/19 11:21:12;;;;;;;13.02;9.20;;;9.60;87.00;;;;;;5001459;28;20030;-78
2022/12/19 11:23:45;;;;;;;12.95;9.05;;;9.60;87.10;;;;;;4999904;28;20048;-81
2022/12/19 11:26:45;;;;;;;13.57;9.13;;;9.60;87.00;;;;;;5000833;28;20038;-77
2022/12/19 11:29:42;;;;;;;12.55;8.98;;;9.60;86.90;;;;;;4997981;28;20112;-78
2022/12/19 11:32:21;;;;;;;13.52;7.78;;;9.50;87.00;;;;;;5000617;28;20040;-79
2022/12/19 11:34:50;;;;;;;13.38;9.18;;;9.40;87.00;;;;;;4998337;28;20107;-78
2022/12/19 11:37:23;;;;;;;14.48;9.95;;;9.40;87.10;;;;;;4998252;28;20037;-78
2022/12/19 11:40:32;;;;;;;11.20;7.45;;;9.40;87.30;;;;;;5001380;28;20469;-78
2022/12/19 11:43:19;;;;;;;14.00;8.68;;;9.30;87.50;;;;;;5006096;28;20470;-78
2022/12/19 11:46:02;;;;;;;14.48;9.60;;;9.20;87.60;;;;;;5000333;28;20026;-79
2022/12/19 11:48:39;;;;;;;10.90;6.68;;;9.30;87.80;;;;;;5003330;28;20053;-79
2022/12/19 11:51:15;;;;;;;12.73;7.35;;;9.20;87.90;;;;;;5003388;28;20068;-79
2022/12/19 11:53:43;;;;;;;11.82;7.43;;;9.20;87.80;;;;;;5004818;28;20118;-79
2022/12/19 11:56:16;;;;;;;13.20;8.25;;;9.20;87.80;;;;;;4994267;28;20510;-81
2022/12/19 11:58:47;;;;;;;10.75;7.63;;;9.20;87.90;;;;;;4994677;28;20045;-78
2022/12/19 12:01:42;;;;;;;10.73;7.80;;;9.20;88.10;;;;;;5000076;28;20130;-75
2022/12/19 12:04:32;;;;;;;13.23;8.43;;;9.20;88.20;;;;;;4991812;28;20479;-76
2022/12/19 12:06:59;;;;;;;14.27;9.00;;;9.20;88.20;;;;;;4997362;28;20382;-75
2022/12/19 12:09:52;;;;;;;11.75;8.40;;;9.20;88.40;;;;;;4995866;28;20034;-78
2022/12/19 12:12:43;;;;;;;12.45;8.07;;;9.10;88.50;;;;;;4993046;28;20038;-76
2022/12/19 12:15:28;;;;;;;9.48;6.32;;;9.10;88.50;;;;;;4992905;28;20389;-76
2022/12/19 12:18:06;;;;;;;13.52;6.53;;;9.10;88.60;;;;;;4998120;28;20034;-78
2022/12/19 12:20:59;;;;;;;11.85;9.73;;;9.20;88.50;;;;;;5000436;28;20250;-76
2022/12/19 12:23:40;;;;;;;11.35;6.97;;;9.20;88.40;;;;;;5000865;28;20065;-77
2022/12/19 12:26:17;;;;;;;12.93;7.68;;;9.20;88.40;;;;;;4996243;28;20038;-79
2022/12/19 12:28:52;;;;;;;11.05;6.15;;;9.30;88.10;;;;;;4990150;28;20042;-77
2022/12/19 12:31:32;;;;;;;11.73;7.18;;;9.30;87.90;;;;;;4999963;28;20041;-76
2022/12/19 12:34:45;;;;;;;9.50;6.63;;;9.30;87.90;;;;;;5007160;28;20050;-77
2022/12/19 12:37:48;;;;;;;10.65;6.70;;;9.30;87.70;;;;;;4997549;28;20054;-77
2022/12/19 12:40:23;;;;;;;10.15;6.68;;;9.30;87.60;;;;;;5006197;28;20096;-75
2022/12/19 12:43:13;;;;;;;11.23;6.30;;;9.40;87.60;;;;;;4998733;28;20049;-75
2022/12/19 12:45:43;;;;;;;10.48;6.22;;;9.40;87.70;;;;;;5000905;28;20038;-78
2022/12/19 12:48:25;;;;;;;9.02;6.47;;;9.40;87.70;;;;;;5001728;28;20034;-78
2022/12/19 12:50:52;;;;;;;10.32;5.97;;;9.30;87.70;;;;;;5002130;28;20048;-77
2022/12/19 12:53:23;;;;;;;12.40;6.57;;;9.30;87.80;;;;;;5003462;28;20041;-77
2022/12/19 12:55:50;;;;;;;9.52;6.63;;;9.30;88.00;;;;;;4996583;28;20049;-78
2022/12/19 12:58:42;;;;;;;9.02;6.30;;;9.30;88.00;;;;;;5001412;28;20124;-78
2022/12/19 13:01:16;;;;;;;10.10;6.20;;;9.30;87.80;;;;;;5003043;28;20050;-78
2022/12/19 13:03:50;;;;;;;12.18;7.38;;;9.30;87.80;;;;;;4999684;28;20159;-76
2022/12/19 13:06:26;;;;;;;9.90;6.87;;;9.40;87.70;;;;;;5000386;28;20064;-77
2022/12/19 13:09:15;;;;;;;9.13;6.43;;;9.40;87.70;;;;;;5010301;28;20034;-77
2022/12/19 13:14:34;;;;;;;11.82;6.82;;;9.50;87.30;;;;;;5000849;28;20092;-77